Arnold, MO

1:53 AM CDT on May 29, 2015 (GMT -0500)
Arnold # 1 | | Change Station
CLOSE
Current Station
Personal Weather Station
Location: Arnold, MO
Elevation: 541 ft
Nearby Weather Stations

Elev 541 ft 38.44 °N, 90.39 °W | Updated 8 minutes ago

Partly Cloudy
Partly Cloudy
69.8 °F
Feels Like 69.8 °F
N
1.6
Wind Variable Wind from NW

Today
High -- | Low -- °F
--% Chance of Precip.
Yesterday
High -- | Low -- °F
Precip. -- in
5:40 AM 8:17 PM
Waxing Gibbous, 81% visible
Pressure 30.04 in
Visibility 10.0 miles
Clouds Clear
Dew Point 63 °F
Humidity 80%
Rainfall 0.00 in
Snow Depth Not available.
UV 0 out of 12
Pollen 8.20 out of 12
Air Quality Not available.
Flu Activity Sporadic
METAR KCPS 290553Z AUTO 15004KT 10SM CLR 21/18 A3004 RMK AO2 SLP170 T02110178 10278 20206 403000156 51000

More Conditions Fewer Conditions

Pressure 30.04 in
Visibility 10.0 miles
Clouds Clear
Dew Point 63 °F
Humidity 80%
Rainfall 0.00 in
Snow Depth Not available.
UV 0 out of 12
Pollen 8.20 out of 12
Air Quality Not available.
Flu Activity Sporadic
METAR KCPS 290553Z AUTO 15004KT 10SM CLR 21/18 A3004 RMK AO2 SLP170 T02110178 10278 20206 403000156 51000

More Conditions Fewer Conditions

10-Day Weather Forecast

Almanac

Astronomy

May. 29, 2015 Rise Set
Actual Time
Civil Twilight
Nautical Twilight
Astronomical Twilight
Moon
Length of Visible Light
Length of Day
Tomorrow will be .
, % of the Moon is Illuminated

Today's Extremes

State Highs State Lows

Community

WunderPhotos

Upload Photos

1,825,215 photos uploaded!

WunderBlogs® & News

Nearby

Air Quality

  Air Quality AQ Index Pollutant
Not available.

Snow Depth

Station Depth Elevation

Earthquake Activity

City Distance Mag. Time & Date
Minimum magnitude displayed is 2.5.

Coastal Water Temperatures

Place Temperature

Stations

Nearby Weather Stations

Station Location Temp. Windchill Dew Point Humidity Wind Precip. Elev Updated Type